Time,TemperatureF,DewpointF,PressureIn,WindDirection,WindDirectionDegrees,WindSpeedMPH,WindSpeedGustMPH,Humidity,HourlyPrecipIn,Conditions,Clouds,dailyrainin,SolarRadiationWatts/m^2,SoftwareType,DateUTC
2013-07-06 00:00:00,69.0,65.0,-100.00,North,0,1.0,-999.0,85,-99.99,,,-99.99,0.000000,,2013-07-06 04:00:00,
2013-07-06 00:43:00,69.0,65.0,-100.00,North,0,1.0,-999.0,85,-99.99,,,-99.99,0.000000,,2013-07-06 04:43:00,
2013-07-06 00:53:00,69.0,65.0,-100.00,North,0,1.0,-999.0,85,-99.99,,,-99.99,0.000000,,2013-07-06 04:53:00,
2013-07-06 01:00:00,69.0,64.0,-100.00,North,0,2.0,-999.0,83,-99.99,,,-99.99,0.000000,,2013-07-06 05:00:00,
2013-07-06 01:34:00,69.0,64.0,-100.00,North,0,2.0,-999.0,83,-99.99,,,-99.99,0.000000,,2013-07-06 05:34:00,
2013-07-06 01:43:00,69.0,64.0,-100.00,North,0,2.0,-999.0,83,-99.99,,,-99.99,0.000000,,2013-07-06 05:43:00,
2013-07-06 01:53:00,69.0,64.0,-100.00,North,0,2.0,-999.0,83,-99.99,,,-99.99,0.000000,,2013-07-06 05:53:00,
2013-07-06 02:00:00,69.0,64.0,-100.00,NNE,22,3.0,-999.0,83,-99.99,,,-99.99,0.000000,,2013-07-06 06:00:00,
2013-07-06 02:43:00,69.0,64.0,-100.00,NNE,22,3.0,-999.0,83,-99.99,,,-99.99,0.000000,,2013-07-06 06:43:00,
2013-07-06 02:53:00,69.0,64.0,-100.00,NNE,22,3.0,-999.0,83,-99.99,,,-99.99,0.000000,,2013-07-06 06:53:00,
2013-07-06 03:00:00,69.0,64.0,-100.00,NNE,22,3.0,-999.0,82,-99.99,,,-99.99,0.000000,,2013-07-06 07:00:00,
2013-07-06 03:44:00,69.0,64.0,-100.00,NNE,22,3.0,-999.0,82,-99.99,,,-99.99,0.000000,,2013-07-06 07:44:00,
2013-07-06 03:52:00,69.0,64.0,-100.00,NNE,22,3.0,-999.0,82,-99.99,,,-99.99,0.000000,,2013-07-06 07:52:00,
2013-07-06 04:00:00,69.0,64.0,-100.00,NNE,22,1.0,-999.0,83,-99.99,,,-99.99,0.000000,,2013-07-06 08:00:00,
2013-07-06 04:43:00,69.0,64.0,-100.00,NNE,22,1.0,-999.0,83,-99.99,,,-99.99,0.000000,,2013-07-06 08:43:00,
2013-07-06 04:54:00,69.0,64.0,-100.00,NNE,22,1.0,-999.0,83,-99.99,,,-99.99,0.000000,,2013-07-06 08:54:00,
2013-07-06 05:00:00,68.0,64.0,-100.00,NNE,22,0.0,-999.0,85,-99.99,,,-99.99,0.000000,,2013-07-06 09:00:00,
2013-07-06 05:43:00,68.0,64.0,-100.00,NNE,22,0.0,-999.0,85,-99.99,,,-99.99,0.000000,,2013-07-06 09:43:00,
2013-07-06 05:53:00,68.0,64.0,-100.00,NNE,22,0.0,-999.0,85,-99.99,,,-99.99,0.000000,,2013-07-06 09:53:00,
2013-07-06 06:00:00,67.0,63.0,-100.00,NNE,22,0.0,-999.0,87,-99.99,,,-99.99,0.000000,,2013-07-06 10:00:00,
2013-07-06 06:43:00,67.0,63.0,-100.00,NNE,22,0.0,-999.0,87,-99.99,,,-99.99,0.000000,,2013-07-06 10:43:00,
2013-07-06 06:53:00,67.0,63.0,-100.00,NNE,22,0.0,-999.0,87,-99.99,,,-99.99,0.000000,,2013-07-06 10:53:00,
2013-07-06 08:00:00,69.0,64.0,-100.00,NNE,22,0.0,-999.0,85,-99.99,,,-99.99,64.959999,,2013-07-06 12:00:00,
2013-07-06 08:43:00,69.0,64.0,-100.00,NNE,22,0.0,-999.0,85,-99.99,,,-99.99,64.959999,,2013-07-06 12:43:00,
2013-07-06 08:52:00,69.0,64.0,-100.00,NNE,22,0.0,-999.0,85,-99.99,,,-99.99,64.959999,,2013-07-06 12:52:00,
2013-07-06 09:00:00,71.0,65.0,-100.00,NE,45,1.0,-999.0,82,-99.99,,,-99.99,183.279999,,2013-07-06 13:00:00,
2013-07-06 09:43:00,71.0,65.0,-100.00,NE,45,1.0,-999.0,82,-99.99,,,-99.99,183.279999,,2013-07-06 13:43:00,
2013-07-06 09:52:00,71.0,65.0,-100.00,NE,45,1.0,-999.0,82,-99.99,,,-99.99,183.279999,,2013-07-06 13:52:00,
2013-07-06 10:00:00,76.0,66.0,-100.00,East,90,2.0,-999.0,72,-99.99,,,-99.99,346.839996,,2013-07-06 14:00:00,
2013-07-06 10:34:00,76.0,66.0,-100.00,East,90,2.0,-999.0,72,-99.99,,,-99.99,346.839996,,2013-07-06 14:34:00,
2013-07-06 10:42:00,76.0,66.0,-100.00,East,90,2.0,-999.0,72,-99.99,,,-99.99,346.839996,,2013-07-06 14:42:00,
2013-07-06 10:53:00,76.0,66.0,-100.00,East,90,2.0,-999.0,72,-99.99,,,-99.99,346.839996,,2013-07-06 14:53:00,
2013-07-06 11:00:00,79.0,66.0,-100.00,ENE,67,2.0,-999.0,64,-99.99,,,-99.99,502.279999,,2013-07-06 15:00:00,
2013-07-06 11:43:00,79.0,66.0,-100.00,ENE,67,2.0,-999.0,64,-99.99,,,-99.99,502.279999,,2013-07-06 15:43:00,
2013-07-06 11:53:00,79.0,66.0,-100.00,ENE,67,2.0,-999.0,64,-99.99,,,-99.99,502.279999,,2013-07-06 15:53:00,
2013-07-06 12:00:00,81.0,64.0,-100.00,NE,45,2.0,-999.0,55,-99.99,,,-99.99,588.119995,,2013-07-06 16:00:00,
2013-07-06 13:00:00,82.0,63.0,-100.00,North,0,3.0,-999.0,54,-99.99,,,-99.99,488.359985,,2013-07-06 17:00:00,
2013-07-06 14:00:00,81.0,64.0,-100.00,NNE,22,4.0,-999.0,57,-99.99,,,-99.99,307.399994,,2013-07-06 18:00:00,
2013-07-06 15:00:00,81.0,65.0,-100.00,NNE,22,5.0,-999.0,57,-99.99,,,-99.99,370.040009,,2013-07-06 19:00:00,
2013-07-06 16:00:00,80.0,65.0,-100.00,ENE,67,5.0,-999.0,61,-99.99,,,-99.99,277.239990,,2013-07-06 20:00:00,
2013-07-06 16:52:00,80.0,65.0,-100.00,ENE,67,5.0,-999.0,61,-99.99,,,-99.99,277.239990,,2013-07-06 20:52:00,
2013-07-06 17:00:00,76.0,66.0,-100.00,South,180,4.0,-999.0,69,-99.99,,,-99.99,160.080002,,2013-07-06 21:00:00,
2013-07-06 19:00:00,73.0,65.0,-100.00,SE,135,4.0,-999.0,76,-99.99,,,-99.99,127.599998,,2013-07-06 23:00:00,
2013-07-06 22:00:00,72.0,66.0,-100.00,SSE,157,0.0,-999.0,82,-99.99,,,-99.99,4.640000,,2013-07-07 02:00:00,
2013-07-06 22:55:00,72.0,66.0,-100.00,SSE,157,0.0,-999.0,82,-99.99,,,-99.99,4.640000,,2013-07-07 02:55:00,
2013-07-06 23:00:00,70.0,66.0,-100.00,SSE,157,0.0,-999.0,86,-99.99,,,-99.99,0.000000,,2013-07-07 03:00:00,
2013-07-06 23:56:00,70.0,66.0,-100.00,SSE,157,0.0,-999.0,86,-99.99,,,-99.99,0.000000,,2013-07-07 03:56:00,